Time;durP1;ratioP1;P1;durP2;ratioP2;P2;SDS_P1;SDS_P2;PMS_P1;PMS_P2;Temp;Humidity;BMP_temperature;BMP_pressure;BME280_temperature;BME280_humidity;BME280_pressure;Samples;Min_cycle;Max_cycle;Signal;HPM_P1;HPM_P2
2023/12/08 00:01:52;;;;;;;16.15;10.30;;;;;;;;;;5108293;27;20339;-67
2023/12/08 00:04:18;;;;;;;15.60;9.30;;;;;;;;;;5109039;27;20530;-67
2023/12/08 00:06:44;;;;;;;17.80;9.80;;;;;;;;;;5108870;27;20042;-66
2023/12/08 00:09:10;;;;;;;14.68;9.48;;;;;;;;;;5107993;27;20035;-68
2023/12/08 00:11:37;;;;;;;16.10;9.85;;;;;;;;;;5108515;27;20266;-66
2023/12/08 00:14:03;;;;;;;17.58;10.65;;;;;;;;;;5108446;28;20258;-67
2023/12/08 00:16:30;;;;;;;14.02;9.75;;;;;;;;;;5089796;28;20071;-67
2023/12/08 00:18:56;;;;;;;16.02;10.00;;;;;;;;;;5107214;27;20038;-67
2023/12/08 00:21:25;;;;;;;18.55;10.57;;;;;;;;;;5107461;27;20333;-67
2023/12/08 00:23:52;;;;;;;12.38;8.68;;;;;;;;;;5090039;27;20062;-67
2023/12/08 00:26:18;;;;;;;17.83;10.55;;;;;;;;;;5091672;27;20168;-67
2023/12/08 00:28:44;;;;;;;16.50;9.88;;;;;;;;;;5111003;27;20047;-67
2023/12/08 00:31:11;;;;;;;13.50;10.10;;;;;;;;;;5110886;27;20335;-68
2023/12/08 00:33:37;;;;;;;14.68;10.57;;;;;;;;;;5110041;27;20207;-67
2023/12/08 00:36:13;;;;;;;14.98;9.18;;;;;;;;;;5111353;27;20295;-67
2023/12/08 00:38:40;;;;;;;16.05;9.45;;;;;;;;;;5110078;27;20043;-67
2023/12/08 00:41:08;;;;;;;15.27;9.75;;;;;;;;;;5090605;27;20122;-67
2023/12/08 00:43:34;;;;;;;15.20;9.13;;;;;;;;;;5111231;27;20134;-67
2023/12/08 00:46:00;;;;;;;13.82;9.93;;;;;;;;;;5091014;27;20038;-67
2023/12/08 00:48:27;;;;;;;16.33;9.70;;;;;;;;;;5109770;27;20112;-67
2023/12/08 00:50:53;;;;;;;15.60;10.30;;;;;;;;;;5110072;27;20055;-67
2023/12/08 00:53:19;;;;;;;15.00;8.60;;;;;;;;;;5110411;27;20046;-67
2023/12/08 00:55:45;;;;;;;16.38;9.95;;;;;;;;;;5108355;27;20286;-66
2023/12/08 00:58:12;;;;;;;12.90;8.65;;;;;;;;;;5090372;27;20053;-67
2023/12/08 01:00:38;;;;;;;16.33;9.82;;;;;;;;;;5109553;27;20298;-66
2023/12/08 01:03:05;;;;;;;13.23;8.73;;;;;;;;;;5090556;27;20171;-67
2023/12/08 01:05:31;;;;;;;13.85;9.77;;;;;;;;;;5110414;27;20043;-66
2023/12/08 01:07:57;;;;;;;15.70;10.02;;;;;;;;;;5109855;27;20035;-68
2023/12/08 01:10:23;;;;;;;12.52;7.82;;;;;;;;;;5108990;27;20326;-67
2023/12/08 01:12:49;;;;;;;19.20;9.00;;;;;;;;;;5110409;27;20043;-66
2023/12/08 01:15:15;;;;;;;15.25;9.63;;;;;;;;;;5092416;27;20047;-66
2023/12/08 01:17:41;;;;;;;15.40;9.23;;;;;;;;;;5112845;27;20038;-66
2023/12/08 01:20:08;;;;;;;14.65;8.57;;;;;;;;;;5111830;27;20181;-67
2023/12/08 01:22:34;;;;;;;15.10;8.77;;;;;;;;;;5093215;27;20322;-66
2023/12/08 01:25:00;;;;;;;13.20;8.30;;;;;;;;;;5111361;27;20098;-67
2023/12/08 01:27:27;;;;;;;13.23;7.95;;;;;;;;;;5110923;27;20464;-67
2023/12/08 01:29:53;;;;;;;14.38;9.18;;;;;;;;;;5111483;27;20074;-67
2023/12/08 01:32:19;;;;;;;11.57;7.68;;;;;;;;;;5110238;27;20196;-67
2023/12/08 01:34:45;;;;;;;15.73;9.13;;;;;;;;;;5110625;27;20050;-67
2023/12/08 01:37:12;;;;;;;12.13;7.50;;;;;;;;;;5111332;27;20035;-68
2023/12/08 01:39:38;;;;;;;11.40;7.45;;;;;;;;;;5110889;27;20043;-66
2023/12/08 01:42:04;;;;;;;12.63;8.32;;;;;;;;;;5110257;27;20135;-67
2023/12/08 01:44:30;;;;;;;13.48;7.85;;;;;;;;;;5110987;27;20043;-67
2023/12/08 01:46:56;;;;;;;11.05;7.50;;;;;;;;;;5112144;27;20277;-67
2023/12/08 01:49:23;;;;;;;11.98;7.60;;;;;;;;;;5091719;27;20091;-66
2023/12/08 01:51:49;;;;;;;12.13;8.48;;;;;;;;;;5111576;27;20059;-67
2023/12/08 01:54:16;;;;;;;12.80;8.25;;;;;;;;;;5111535;27;20435;-67
2023/12/08 01:56:43;;;;;;;12.00;8.35;;;;;;;;;;5108872;27;20652;-67
2023/12/08 01:59:09;;;;;;;16.73;9.02;;;;;;;;;;5111498;27;20254;-67
2023/12/08 02:01:35;;;;;;;12.50;8.18;;;;;;;;;;5110645;27;20039;-67
2023/12/08 02:04:02;;;;;;;11.90;8.48;;;;;;;;;;5109668;27;20213;-68
2023/12/08 02:06:28;;;;;;;12.52;7.25;;;;;;;;;;5110156;27;20043;-67
2023/12/08 02:08:54;;;;;;;11.98;8.70;;;;;;;;;;5110591;27;20213;-67
2023/12/08 02:11:21;;;;;;;13.70;8.15;;;;;;;;;;5109161;27;20379;-68
2023/12/08 02:13:47;;;;;;;11.63;8.13;;;;;;;;;;5107687;27;20047;-67
2023/12/08 02:16:26;;;;;;;12.48;8.10;;;;;;;;;;5109994;27;20265;-68
2023/12/08 02:18:52;;;;;;;16.75;9.13;;;;;;;;;;5110075;27;20293;-67
2023/12/08 02:21:19;;;;;;;12.63;7.85;;;;;;;;;;5109231;27;20042;-68
2023/12/08 02:23:48;;;;;;;12.52;8.63;;;;;;;;;;5108050;27;20047;-68
2023/12/08 02:26:15;;;;;;;11.77;8.18;;;;;;;;;;5089520;27;20066;-69
2023/12/08 02:28:41;;;;;;;14.65;7.60;;;;;;;;;;5108942;27;20043;-68
2023/12/08 02:31:10;;;;;;;11.93;8.10;;;;;;;;;;5110113;27;20031;-69
2023/12/08 02:33:37;;;;;;;11.80;8.10;;;;;;;;;;5110343;27;20047;-68
2023/12/08 02:36:04;;;;;;;11.35;8.30;;;;;;;;;;5110986;27;20133;-67
2023/12/08 02:38:32;;;;;;;10.32;7.85;;;;;;;;;;5110816;27;20046;-67
2023/12/08 02:40:58;;;;;;;11.85;7.85;;;;;;;;;;5107039;27;20035;-67
2023/12/08 02:43:25;;;;;;;16.45;8.90;;;;;;;;;;5108000;27;20058;-68
2023/12/08 02:45:51;;;;;;;12.63;8.88;;;;;;;;;;5107130;27;20047;-67
2023/12/08 02:48:17;;;;;;;15.40;8.75;;;;;;;;;;5088978;27;20043;-67
2023/12/08 02:50:43;;;;;;;15.95;9.52;;;;;;;;;;5089088;27;20439;-67
2023/12/08 02:53:10;;;;;;;11.90;8.18;;;;;;;;;;5089200;27;20525;-67
2023/12/08 02:55:36;;;;;;;12.25;8.55;;;;;;;;;;5107612;27;20050;-68
2023/12/08 02:58:02;;;;;;;15.25;9.40;;;;;;;;;;5108981;27;20337;-66
2023/12/08 03:00:28;;;;;;;13.13;8.40;;;;;;;;;;5090699;27;20539;-66
2023/12/08 03:02:54;;;;;;;11.65;8.60;;;;;;;;;;5109076;27;20170;-66
2023/12/08 03:05:20;;;;;;;12.18;8.25;;;;;;;;;;5109337;27;20047;-66
2023/12/08 03:07:47;;;;;;;14.48;9.30;;;;;;;;;;5108958;27;20042;-68
2023/12/08 03:10:13;;;;;;;13.30;8.93;;;;;;;;;;5107567;27;20431;-66
2023/12/08 03:12:39;;;;;;;11.90;7.82;;;;;;;;;;5089509;27;20521;-67
2023/12/08 03:15:06;;;;;;;13.13;8.55;;;;;;;;;;5089769;27;20043;-66
2023/12/08 03:17:32;;;;;;;16.02;8.48;;;;;;;;;;5106715;27;20110;-67
2023/12/08 03:19:58;;;;;;;13.27;8.90;;;;;;;;;;5089609;27;20039;-68
2023/12/08 03:22:24;;;;;;;10.60;7.68;;;;;;;;;;5108469;27;20497;-67
2023/12/08 03:24:51;;;;;;;13.27;9.00;;;;;;;;;;5086928;27;20108;-67
2023/12/08 03:27:17;;;;;;;13.85;8.35;;;;;;;;;;5088152;27;20039;-67
2023/12/08 03:29:43;;;;;;;12.95;9.00;;;;;;;;;;5108596;27;20194;-67
2023/12/08 03:32:09;;;;;;;13.43;8.48;;;;;;;;;;5108691;27;20462;-67
2023/12/08 03:34:35;;;;;;;12.02;8.43;;;;;;;;;;5109185;27;20411;-67
2023/12/08 03:37:02;;;;;;;11.65;7.75;;;;;;;;;;5107815;27;20347;-67
2023/12/08 03:39:28;;;;;;;14.57;9.35;;;;;;;;;;5107615;27;20023;-67
2023/12/08 03:41:54;;;;;;;14.40;9.15;;;;;;;;;;5106327;27;20422;-67
2023/12/08 03:44:20;;;;;;;14.52;8.98;;;;;;;;;;5107755;27;20049;-67
2023/12/08 03:46:46;;;;;;;15.45;9.05;;;;;;;;;;5108362;27;20043;-67
2023/12/08 03:49:12;;;;;;;16.95;9.75;;;;;;;;;;5088518;27;20257;-67
2023/12/08 03:51:39;;;;;;;13.80;9.13;;;;;;;;;;5108452;27;20039;-67
2023/12/08 03:54:05;;;;;;;12.60;8.90;;;;;;;;;;5107893;27;20047;-66
2023/12/08 03:56:31;;;;;;;18.85;9.30;;;;;;;;;;5107374;27;20167;-67
2023/12/08 03:58:57;;;;;;;12.57;10.00;;;;;;;;;;5107634;27;20113;-67
2023/12/08 04:01:23;;;;;;;14.95;9.32;;;;;;;;;;5108419;27;20054;-67
2023/12/08 04:03:49;;;;;;;12.75;8.38;;;;;;;;;;5109438;27;20085;-67
2023/12/08 04:06:15;;;;;;;14.43;9.15;;;;;;;;;;5089593;27;20202;-68
2023/12/08 04:08:42;;;;;;;13.48;9.43;;;;;;;;;;5089201;27;20356;-67
2023/12/08 04:11:08;;;;;;;12.98;9.27;;;;;;;;;;5106903;27;20459;-67
2023/12/08 04:13:34;;;;;;;16.20;10.43;;;;;;;;;;5106812;27;20039;-68
2023/12/08 04:16:00;;;;;;;14.75;10.32;;;;;;;;;;5107030;27;20122;-67
2023/12/08 04:18:26;;;;;;;11.82;7.97;;;;;;;;;;5108520;28;20421;-67
2023/12/08 04:20:52;;;;;;;14.10;8.40;;;;;;;;;;5106980;28;20469;-67
2023/12/08 04:23:19;;;;;;;14.18;9.88;;;;;;;;;;5108953;27;20039;-67
2023/12/08 04:25:46;;;;;;;13.95;9.05;;;;;;;;;;5106331;27;20438;-67
2023/12/08 04:28:12;;;;;;;16.45;9.90;;;;;;;;;;5106580;28;20181;-67
2023/12/08 04:30:38;;;;;;;17.10;9.82;;;;;;;;;;5107062;27;20484;-67
2023/12/08 04:33:04;;;;;;;14.90;10.57;;;;;;;;;;5107771;28;20035;-67
2023/12/08 04:35:30;;;;;;;13.50;8.88;;;;;;;;;;5107372;28;20518;-67
2023/12/08 04:37:56;;;;;;;14.40;9.05;;;;;;;;;;5107297;27;20157;-67
2023/12/08 04:40:22;;;;;;;15.68;9.80;;;;;;;;;;5107211;28;20038;-67
2023/12/08 04:42:48;;;;;;;14.30;10.18;;;;;;;;;;5106796;28;20315;-67
2023/12/08 04:45:14;;;;;;;15.02;9.55;;;;;;;;;;5088771;28;20047;-66
2023/12/08 04:47:46;;;;;;;13.10;9.48;;;;;;;;;;5088837;28;20173;-67
2023/12/08 04:50:13;;;;;;;17.15;10.15;;;;;;;;;;5088925;28;20338;-67
2023/12/08 04:52:39;;;;;;;16.02;9.38;;;;;;;;;;5088763;28;20043;-66
2023/12/08 04:55:05;;;;;;;15.50;9.43;;;;;;;;;;5107012;28;20594;-68
2023/12/08 04:57:32;;;;;;;13.50;9.50;;;;;;;;;;5106896;28;20124;-67
2023/12/08 04:59:59;;;;;;;13.82;9.27;;;;;;;;;;5107498;27;20111;-67
2023/12/08 05:02:25;;;;;;;15.73;9.55;;;;;;;;;;5107582;28;20051;-67
2023/12/08 05:04:51;;;;;;;14.93;9.55;;;;;;;;;;5108897;28;20043;-67
2023/12/08 05:07:17;;;;;;;12.27;8.63;;;;;;;;;;5107171;27;20062;-67
2023/12/08 05:09:43;;;;;;;16.75;10.32;;;;;;;;;;5110546;27;20508;-67
2023/12/08 05:12:09;;;;;;;12.25;8.63;;;;;;;;;;5091294;27;20054;-67
2023/12/08 05:14:35;;;;;;;15.77;10.23;;;;;;;;;;5109000;27;20050;-67
2023/12/08 05:17:02;;;;;;;16.80;11.20;;;;;;;;;;5110628;27;20395;-68
2023/12/08 05:19:28;;;;;;;15.57;9.88;;;;;;;;;;5110797;27;20039;-67
2023/12/08 05:21:55;;;;;;;11.60;8.38;;;;;;;;;;5110722;27;20212;-67
2023/12/08 05:24:21;;;;;;;13.65;9.27;;;;;;;;;;5111265;27;20046;-67
2023/12/08 05:26:47;;;;;;;19.17;10.93;;;;;;;;;;5109496;27;20112;-67
2023/12/08 05:29:13;;;;;;;14.57;10.35;;;;;;;;;;5108535;27;20038;-67
2023/12/08 05:31:40;;;;;;;16.05;10.45;;;;;;;;;;5090634;27;20085;-67
2023/12/08 05:34:06;;;;;;;12.20;8.98;;;;;;;;;;5110073;27;20039;-67
2023/12/08 05:36:32;;;;;;;15.60;10.88;;;;;;;;;;5109130;27;20050;-67
2023/12/08 05:38:58;;;;;;;16.42;10.10;;;;;;;;;;5109272;27;20047;-66
2023/12/08 05:41:24;;;;;;;14.00;10.35;;;;;;;;;;5108942;27;20054;-67
2023/12/08 05:43:50;;;;;;;14.85;10.90;;;;;;;;;;5109415;27;20046;-67
2023/12/08 05:46:16;;;;;;;14.25;9.52;;;;;;;;;;5110938;27;20038;-67
2023/12/08 05:48:42;;;;;;;14.27;10.20;;;;;;;;;;5092740;27;20085;-67
2023/12/08 05:51:08;;;;;;;15.68;10.43;;;;;;;;;;5111716;27;20115;-66
2023/12/08 05:53:35;;;;;;;15.90;10.45;;;;;;;;;;5093235;27;20043;-67
2023/12/08 05:56:01;;;;;;;12.75;8.95;;;;;;;;;;5108867;27;20796;-65
2023/12/08 05:58:27;;;;;;;13.05;9.23;;;;;;;;;;5109136;27;20069;-66
2023/12/08 06:00:54;;;;;;;13.95;10.25;;;;;;;;;;5109280;27;20226;-68
2023/12/08 06:03:20;;;;;;;17.30;11.45;;;;;;;;;;5092181;27;20066;-66
2023/12/08 06:05:46;;;;;;;16.45;11.50;;;;;;;;;;5110176;27;20043;-67
2023/12/08 06:08:13;;;;;;;15.80;10.82;;;;;;;;;;5090939;27;20734;-67
2023/12/08 06:10:39;;;;;;;17.13;10.73;;;;;;;;;;5110042;27;20148;-67
2023/12/08 06:13:05;;;;;;;12.63;9.20;;;;;;;;;;5093622;27;20482;-67
2023/12/08 06:15:34;;;;;;;14.95;9.75;;;;;;;;;;5113666;27;20043;-67
2023/12/08 06:18:00;;;;;;;15.45;10.45;;;;;;;;;;5114199;27;20065;-67
2023/12/08 06:20:26;;;;;;;14.40;10.15;;;;;;;;;;5093295;27;20264;-67
2023/12/08 06:22:52;;;;;;;18.23;10.82;;;;;;;;;;5113065;27;20289;-67
2023/12/08 06:25:20;;;;;;;14.60;10.07;;;;;;;;;;5113100;27;20301;-67
2023/12/08 06:27:46;;;;;;;17.58;9.65;;;;;;;;;;5108053;27;20047;-67
2023/12/08 06:30:13;;;;;;;18.05;10.52;;;;;;;;;;5109324;27;20081;-67
2023/12/08 06:32:39;;;;;;;12.82;9.25;;;;;;;;;;5108435;27;20098;-67
2023/12/08 06:35:05;;;;;;;17.40;11.18;;;;;;;;;;5109410;27;20157;-67
2023/12/08 06:37:31;;;;;;;15.23;10.65;;;;;;;;;;5111617;27;20176;-67
2023/12/08 06:39:58;;;;;;;14.77;10.38;;;;;;;;;;5108917;27;20565;-67
2023/12/08 06:42:24;;;;;;;16.52;11.63;;;;;;;;;;5107503;27;20479;-67
2023/12/08 06:44:50;;;;;;;17.75;10.65;;;;;;;;;;5087052;27;20575;-67
2023/12/08 06:47:16;;;;;;;15.38;10.45;;;;;;;;;;5105037;27;20062;-67
2023/12/08 06:49:42;;;;;;;17.30;10.73;;;;;;;;;;5105964;27;20035;-66
2023/12/08 06:52:08;;;;;;;18.98;11.18;;;;;;;;;;5104976;27;20146;-66
2023/12/08 06:54:34;;;;;;;16.75;10.88;;;;;;;;;;5104681;27;20099;-67
2023/12/08 06:57:00;;;;;;;16.33;10.82;;;;;;;;;;5086011;27;20090;-67
2023/12/08 06:59:26;;;;;;;18.05;11.00;;;;;;;;;;5107825;27;20101;-67
2023/12/08 07:01:52;;;;;;;17.83;11.77;;;;;;;;;;5107410;27;20110;-67
2023/12/08 07:04:18;;;;;;;14.75;10.27;;;;;;;;;;5087409;27;20062;-66
2023/12/08 07:06:45;;;;;;;16.35;9.60;;;;;;;;;;5105464;27;20204;-67
2023/12/08 07:09:11;;;;;;;15.35;9.88;;;;;;;;;;5107599;27;20093;-66
2023/12/08 07:11:37;;;;;;;14.40;10.27;;;;;;;;;;5099725;27;20567;-67
2023/12/08 07:14:03;;;;;;;18.10;10.45;;;;;;;;;;5069908;27;20363;-66
2023/12/08 07:16:30;;;;;;;16.95;10.85;;;;;;;;;;5118778;27;20051;-67
2023/12/08 07:18:56;;;;;;;18.63;10.68;;;;;;;;;;5104069;27;20445;-67
2023/12/08 07:21:22;;;;;;;16.50;10.55;;;;;;;;;;5102192;27;20046;-67
2023/12/08 07:23:48;;;;;;;15.57;10.13;;;;;;;;;;5103410;27;20043;-67
2023/12/08 07:26:15;;;;;;;19.98;10.80;;;;;;;;;;5102988;27;20297;-66
2023/12/08 07:28:42;;;;;;;18.02;12.05;;;;;;;;;;5081685;27;20113;-67
2023/12/08 07:31:08;;;;;;;16.67;10.65;;;;;;;;;;5106668;27;20035;-67
2023/12/08 07:33:35;;;;;;;20.10;12.02;;;;;;;;;;5105121;27;20268;-66
2023/12/08 07:36:01;;;;;;;20.10;13.40;;;;;;;;;;5106352;27;20619;-67
2023/12/08 07:38:28;;;;;;;18.73;12.15;;;;;;;;;;5106664;27;20344;-66
2023/12/08 07:40:54;;;;;;;17.00;10.48;;;;;;;;;;5100598;27;20259;-67
2023/12/08 07:43:20;;;;;;;18.75;12.80;;;;;;;;;;5107000;27;20406;-66
2023/12/08 07:45:46;;;;;;;16.77;10.98;;;;;;;;;;5107012;27;20073;-67
2023/12/08 07:48:13;;;;;;;16.75;12.93;;;;;;;;;;5082483;27;20079;-67
2023/12/08 07:50:39;;;;;;;22.27;11.32;;;;;;;;;;5105671;27;20083;-67
2023/12/08 07:53:05;;;;;;;18.55;12.13;;;;;;;;;;5105645;27;20134;-67
2023/12/08 07:55:31;;;;;;;20.67;12.10;;;;;;;;;;5104872;27;20672;-66
2023/12/08 07:57:57;;;;;;;15.90;11.75;;;;;;;;;;5104111;27;20183;-66
2023/12/08 08:00:24;;;;;;;19.50;12.18;;;;;;;;;;5104200;27;20218;-66
2023/12/08 08:02:50;;;;;;;14.55;10.65;;;;;;;;;;5103880;27;20047;-66
2023/12/08 08:05:16;;;;;;;15.57;11.35;;;;;;;;;;5068189;28;20222;-67
2023/12/08 08:07:42;;;;;;;17.65;11.95;;;;;;;;;;5103873;27;20214;-66
2023/12/08 08:10:08;;;;;;;19.05;11.80;;;;;;;;;;5104293;27;20250;-66
2023/12/08 08:12:35;;;;;;;16.63;11.57;;;;;;;;;;5052254;28;20031;-66
2023/12/08 08:15:07;;;;;;;17.77;11.90;;;;;;;;;;5104275;28;20808;-67
2023/12/08 08:17:33;;;;;;;21.08;12.50;;;;;;;;;;5105418;27;20171;-67
2023/12/08 08:19:59;;;;;;;19.65;12.70;;;;;;;;;;5104457;28;20118;-67
2023/12/08 08:22:25;;;;;;;18.00;10.95;;;;;;;;;;5105239;28;20122;-66
2023/12/08 08:24:51;;;;;;;16.00;11.50;;;;;;;;;;5085422;28;20134;-66
2023/12/08 08:27:17;;;;;;;17.98;12.00;;;;;;;;;;5084922;28;20208;-65
2023/12/08 08:29:43;;;;;;;17.73;12.25;;;;;;;;;;5068172;27;20488;-66
2023/12/08 08:32:09;;;;;;;18.95;12.93;;;;;;;;;;5104749;27;20054;-65
2023/12/08 08:34:36;;;;;;;19.10;11.38;;;;;;;;;;5085496;28;20183;-67
2023/12/08 08:37:02;;;;;;;21.33;11.93;;;;;;;;;;5085632;28;20126;-67
2023/12/08 08:39:28;;;;;;;20.50;12.20;;;;;;;;;;5105042;28;20418;-67
2023/12/08 08:42:00;;;;;;;18.60;13.65;;;;;;;;;;5104728;28;20110;-67
2023/12/08 08:44:27;;;;;;;18.63;12.55;;;;;;;;;;5105468;27;20224;-66
2023/12/08 08:46:53;;;;;;;21.17;12.80;;;;;;;;;;5089767;27;20199;-67
2023/12/08 08:49:19;;;;;;;21.38;13.20;;;;;;;;;;5073919;27;20047;-65
2023/12/08 08:51:46;;;;;;;16.85;11.63;;;;;;;;;;5110752;27;20051;-65
2023/12/08 08:54:15;;;;;;;17.58;12.90;;;;;;;;;;5091600;27;20039;-66
2023/12/08 08:56:42;;;;;;;18.23;12.93;;;;;;;;;;5111684;27;20051;-67
2023/12/08 08:59:09;;;;;;;17.33;12.15;;;;;;;;;;5113501;27;20610;-66
2023/12/08 09:01:35;;;;;;;17.45;11.82;;;;;;;;;;5114074;27;20074;-66
2023/12/08 09:04:01;;;;;;;17.58;11.27;;;;;;;;;;5108283;27;20447;-67
2023/12/08 09:06:27;;;;;;;18.58;11.65;;;;;;;;;;5109428;27;20509;-67
2023/12/08 09:08:53;;;;;;;24.80;12.20;;;;;;;;;;5108278;27;20042;-66
2023/12/08 09:11:19;;;;;;;19.85;12.45;;;;;;;;;;5109965;27;20062;-66
2023/12/08 09:13:45;;;;;;;19.85;12.70;;;;;;;;;;5090144;27;20106;-66
2023/12/08 09:16:12;;;;;;;19.13;13.07;;;;;;;;;;5108130;27;20198;-66
2023/12/08 09:18:38;;;;;;;15.95;11.45;;;;;;;;;;5108584;27;20082;-66
2023/12/08 09:21:05;;;;;;;20.77;12.45;;;;;;;;;;5089364;27;20277;-66
2023/12/08 09:23:31;;;;;;;21.23;12.80;;;;;;;;;;5108096;27;20095;-66
2023/12/08 09:25:59;;;;;;;18.17;12.27;;;;;;;;;;5102605;27;20047;-66
2023/12/08 09:28:25;;;;;;;19.98;13.32;;;;;;;;;;5086975;27;20055;-66
2023/12/08 09:30:51;;;;;;;18.65;12.20;;;;;;;;;;5107065;27;20039;-66
2023/12/08 09:33:17;;;;;;;17.40;10.80;;;;;;;;;;5107526;27;20347;-66
2023/12/08 09:35:43;;;;;;;18.55;14.05;;;;;;;;;;5107485;27;20439;-66
2023/12/08 09:38:10;;;;;;;18.15;12.70;;;;;;;;;;5105640;27;20049;-66
2023/12/08 09:40:38;;;;;;;18.38;12.60;;;;;;;;;;5104583;27;20382;-66
2023/12/08 09:43:13;;;;;;;17.45;11.32;;;;;;;;;;5107303;27;20085;-66
2023/12/08 09:45:40;;;;;;;16.02;11.43;;;;;;;;;;5105646;27;20047;-66
2023/12/08 09:48:07;;;;;;;15.65;11.25;;;;;;;;;;5106123;27;20202;-66
2023/12/08 09:50:34;;;;;;;21.80;13.00;;;;;;;;;;5106554;27;20050;-66
2023/12/08 09:53:00;;;;;;;18.67;11.52;;;;;;;;;;5106924;27;20467;-67
2023/12/08 09:55:27;;;;;;;18.83;12.40;;;;;;;;;;5052990;27;20263;-65
2023/12/08 09:57:54;;;;;;;19.63;12.20;;;;;;;;;;5105982;27;20055;-66
2023/12/08 10:00:22;;;;;;;21.23;12.70;;;;;;;;;;5106296;27;20130;-66
2023/12/08 10:02:49;;;;;;;21.25;13.57;;;;;;;;;;5106595;27;20297;-66
2023/12/08 10:05:15;;;;;;;17.75;13.25;;;;;;;;;;5106991;27;20262;-66
2023/12/08 10:07:44;;;;;;;17.77;11.80;;;;;;;;;;5105581;27;20113;-66
2023/12/08 10:10:11;;;;;;;21.15;13.93;;;;;;;;;;5069045;27;20047;-67
2023/12/08 10:12:37;;;;;;;18.88;12.25;;;;;;;;;;5106183;27;20054;-66
2023/12/08 10:15:04;;;;;;;19.95;12.60;;;;;;;;;;5069699;27;20545;-66
2023/12/08 10:17:30;;;;;;;17.65;12.00;;;;;;;;;;5087638;27;20122;-67
2023/12/08 10:20:12;;;;;;;15.40;10.95;;;;;;;;;;5115084;27;20092;-66
2023/12/08 10:22:45;;;;;;;19.52;12.65;;;;;;;;;;5124328;27;20046;-67
2023/12/08 10:25:11;;;;;;;;;;;;;;;;;;5122851;27;20039;-66
2023/12/08 10:27:37;;;;;;;20.90;12.25;;;;;;;;;;5122899;27;19933;-66
2023/12/08 10:30:03;;;;;;;17.27;12.25;;;;;;;;;;5122631;27;20084;-66
2023/12/08 10:32:29;;;;;;;17.02;10.88;;;;;;;;;;5122989;27;20109;-67
2023/12/08 10:34:56;;;;;;;18.48;11.98;;;;;;;;;;5122040;27;20104;-67
2023/12/08 10:37:24;;;;;;;20.45;12.18;;;;;;;;;;5123214;27;20100;-66
2023/12/08 10:39:50;;;;;;;18.27;11.98;;;;;;;;;;5122439;27;20035;-66
2023/12/08 10:42:16;;;;;;;17.27;11.73;;;;;;;;;;5122695;27;20070;-67
2023/12/08 10:44:46;;;;;;;15.05;10.85;;;;;;;;;;5102150;27;20047;-66
2023/12/08 10:47:14;;;;;;;18.30;11.68;;;;;;;;;;5103721;27;20530;-67
2023/12/08 10:49:40;;;;;;;16.25;11.98;;;;;;;;;;5122422;27;20067;-67
2023/12/08 10:52:06;;;;;;;19.33;11.15;;;;;;;;;;5123461;27;20054;-67
2023/12/08 10:54:33;;;;;;;18.65;12.55;;;;;;;;;;5122472;27;20166;-67
2023/12/08 10:56:59;;;;;;;15.35;10.38;;;;;;;;;;5122482;27;20104;-67
2023/12/08 10:59:26;;;;;;;22.02;12.95;;;;;;;;;;5121292;27;20146;-67
2023/12/08 11:02:00;;;;;;;16.98;12.57;;;;;;;;;;5122480;27;20497;-66
2023/12/08 11:04:27;;;;;;;19.08;12.07;;;;;;;;;;5103192;27;20043;-67
2023/12/08 11:07:05;;;;;;;18.50;11.98;;;;;;;;;;5122406;27;20053;-66
2023/12/08 11:09:35;;;;;;;17.45;11.38;;;;;;;;;;5102779;27;20035;-66
2023/12/08 11:12:03;;;;;;;17.67;11.50;;;;;;;;;;5121714;27;20112;-67
2023/12/08 11:14:40;;;;;;;18.45;10.88;;;;;;;;;;5101277;27;20057;-66
2023/12/08 11:17:14;;;;;;;17.42;12.48;;;;;;;;;;5122285;27;20046;-66
2023/12/08 11:19:40;;;;;;;18.67;12.60;;;;;;;;;;5103175;27;20304;-66
2023/12/08 11:22:06;;;;;;;24.25;12.93;;;;;;;;;;5121774;27;20035;-68
2023/12/08 11:24:33;;;;;;;17.27;12.02;;;;;;;;;;5122366;27;20031;-66
2023/12/08 11:26:59;;;;;;;19.77;12.77;;;;;;;;;;5121935;27;20035;-65
2023/12/08 11:29:48;;;;;;;16.48;11.55;;;;;;;;;;5121571;27;20611;-66
2023/12/08 11:32:33;;;;;;;16.67;11.00;;;;;;;;;;5111404;27;20066;-67
2023/12/08 11:35:01;;;;;;;18.17;13.27;;;;;;;;;;5121439;27;20154;-66
2023/12/08 11:37:30;;;;;;;17.02;10.90;;;;;;;;;;5103804;27;20047;-67
2023/12/08 11:40:04;;;;;;;15.10;11.52;;;;;;;;;;5121034;27;20143;-67
2023/12/08 11:42:33;;;;;;;17.60;12.60;;;;;;;;;;5122996;27;20688;-67
2023/12/08 11:45:00;;;;;;;17.98;12.35;;;;;;;;;;5121762;27;20039;-66
2023/12/08 11:47:27;;;;;;;16.75;11.73;;;;;;;;;;5122786;27;20063;-67
2023/12/08 11:49:54;;;;;;;21.48;12.40;;;;;;;;;;5122336;27;20055;-66
2023/12/08 11:52:28;;;;;;;16.45;10.98;;;;;;;;;;5103417;27;20046;-67
2023/12/08 11:55:06;;;;;;;17.25;11.93;;;;;;;;;;5121507;27;20091;-67
2023/12/08 11:57:36;;;;;;;20.23;13.57;;;;;;;;;;5122042;27;20425;-67
2023/12/08 12:00:04;;;;;;;18.92;11.50;;;;;;;;;;5119358;27;20463;-66
2023/12/08 12:02:30;;;;;;;20.30;10.30;;;;;;;;;;5119934;27;20051;-66
2023/12/08 12:04:57;;;;;;;21.17;13.35;;;;;;;;;;5120147;27;20104;-66
2023/12/08 12:07:24;;;;;;;18.77;12.70;;;;;;;;;;5122211;27;20079;-66
2023/12/08 12:09:50;;;;;;;18.55;12.18;;;;;;;;;;5102397;28;20091;-67
2023/12/08 12:12:24;;;;;;;22.52;14.30;;;;;;;;;;5068630;28;20027;-66
2023/12/08 12:14:54;;;;;;;23.40;13.30;;;;;;;;;;5121713;27;20122;-66
2023/12/08 12:17:21;;;;;;;18.15;12.13;;;;;;;;;;5121714;27;20153;-66
2023/12/08 12:19:48;;;;;;;22.27;12.85;;;;;;;;;;5120987;27;20451;-66
2023/12/08 12:22:14;;;;;;;18.90;12.70;;;;;;;;;;5102305;28;20031;-66
2023/12/08 12:24:41;;;;;;;24.00;13.40;;;;;;;;;;5122021;27;20099;-66
2023/12/08 12:27:07;;;;;;;19.52;12.63;;;;;;;;;;5085155;28;20047;-66
2023/12/08 12:29:33;;;;;;;22.20;13.85;;;;;;;;;;5120981;28;20043;-65
2023/12/08 12:32:00;;;;;;;19.40;13.32;;;;;;;;;;5102435;28;20046;-66
2023/12/08 12:34:27;;;;;;;20.45;11.13;;;;;;;;;;5120555;28;20131;-66
2023/12/08 12:36:53;;;;;;;23.65;13.75;;;;;;;;;;5120281;27;20064;-66
2023/12/08 12:39:19;;;;;;;24.95;13.35;;;;;;;;;;5101480;28;20047;-67
2023/12/08 12:41:49;;;;;;;21.25;13.43;;;;;;;;;;5119774;27;20039;-66
2023/12/08 12:44:15;;;;;;;23.90;13.13;;;;;;;;;;5120304;28;20062;-66
2023/12/08 12:46:42;;;;;;;23.90;14.73;;;;;;;;;;5118587;28;20062;-65
2023/12/08 12:49:14;;;;;;;18.65;13.10;;;;;;;;;;5120544;28;20071;-66
2023/12/08 12:51:42;;;;;;;21.45;13.40;;;;;;;;;;5100610;28;20047;-65
2023/12/08 12:54:09;;;;;;;19.92;12.30;;;;;;;;;;5101503;28;20126;-65
2023/12/08 12:56:36;;;;;;;20.38;12.13;;;;;;;;;;5119715;27;20089;-66
2023/12/08 12:59:03;;;;;;;23.00;14.27;;;;;;;;;;5120421;28;20046;-66
2023/12/08 13:01:31;;;;;;;22.35;13.77;;;;;;;;;;5120112;27;20039;-66
2023/12/08 13:03:57;;;;;;;24.60;12.40;;;;;;;;;;5121700;28;20181;-66
2023/12/08 13:06:31;;;;;;;20.10;11.93;;;;;;;;;;5101539;28;20521;-66
2023/12/08 13:08:58;;;;;;;21.00;12.15;;;;;;;;;;5121400;28;20051;-66
2023/12/08 13:11:25;;;;;;;21.38;13.52;;;;;;;;;;5120579;28;20047;-67
2023/12/08 13:13:51;;;;;;;19.98;11.93;;;;;;;;;;5121087;27;20043;-67
2023/12/08 13:16:17;;;;;;;19.48;12.25;;;;;;;;;;5120684;28;20040;-67
2023/12/08 13:18:47;;;;;;;21.10;12.70;;;;;;;;;;5122025;28;20047;-67
2023/12/08 13:21:15;;;;;;;17.35;12.18;;;;;;;;;;5101475;28;20054;-66
2023/12/08 13:23:42;;;;;;;17.58;12.02;;;;;;;;;;5121470;28;20142;-66
2023/12/08 13:26:08;;;;;;;19.13;12.15;;;;;;;;;;5120289;27;20065;-66
2023/12/08 13:28:34;;;;;;;19.83;12.07;;;;;;;;;;5121252;28;20955;-67
2023/12/08 13:31:00;;;;;;;22.38;13.15;;;;;;;;;;5136383;27;20095;-67
2023/12/08 13:33:28;;;;;;;15.80;11.80;;;;;;;;;;5125602;27;20118;-67
2023/12/08 13:35:55;;;;;;;22.02;14.20;;;;;;;;;;5105220;27;20047;-67
2023/12/08 13:38:22;;;;;;;18.27;11.45;;;;;;;;;;5105939;27;20083;-66
2023/12/08 13:40:48;;;;;;;20.10;11.90;;;;;;;;;;5123618;27;20062;-67
2023/12/08 13:43:14;;;;;;;19.60;11.75;;;;;;;;;;5124937;27;20069;-66
2023/12/08 13:45:41;;;;;;;20.15;12.93;;;;;;;;;;5124375;27;20455;-66
2023/12/08 13:48:07;;;;;;;18.63;12.13;;;;;;;;;;5124641;27;20053;-66
2023/12/08 13:50:34;;;;;;;21.80;13.57;;;;;;;;;;5125183;27;20469;-66
2023/12/08 13:53:00;;;;;;;19.58;12.13;;;;;;;;;;5124129;27;20046;-67
2023/12/08 13:55:26;;;;;;;21.67;12.45;;;;;;;;;;5124302;27;20047;-67
2023/12/08 13:57:53;;;;;;;17.80;12.20;;;;;;;;;;5123991;27;21025;-67
2023/12/08 14:00:19;;;;;;;25.15;13.63;;;;;;;;;;5124861;27;20062;-67
2023/12/08 14:02:46;;;;;;;18.85;11.95;;;;;;;;;;5123042;27;20122;-67
2023/12/08 14:05:12;;;;;;;16.63;11.05;;;;;;;;;;5106099;27;20141;-67
2023/12/08 14:07:38;;;;;;;23.23;12.10;;;;;;;;;;5123882;27;20608;-66
2023/12/08 14:10:05;;;;;;;17.52;11.90;;;;;;;;;;5123318;27;20422;-66
2023/12/08 14:12:31;;;;;;;20.77;11.10;;;;;;;;;;5123834;27;20043;-66
2023/12/08 14:14:57;;;;;;;15.05;11.82;;;;;;;;;;5124321;27;20066;-65
2023/12/08 14:17:23;;;;;;;20.90;12.40;;;;;;;;;;5104734;27;20039;-66
2023/12/08 14:19:50;;;;;;;22.55;12.35;;;;;;;;;;5124609;27;20043;-67